Time;durP1;ratioP1;P1;durP2;ratioP2;P2;SDS_P1;SDS_P2;PMS_P1;PMS_P2;Temp;Humidity;BMP_temperature;BMP_pressure;BME280_temperature;BME280_humidity;BME280_pressure;Samples;Min_cycle;Max_cycle;Signal;HPM_P1;HPM_P2
2021/07/01 00:00:43;;;;;;;1.58;0.80;;;;;;;;;;1496421;31;20615;-58
2021/07/01 00:02:01;;;;;;;2.05;0.90;;;;;;;;;;1500579;31;20390;-57
2021/07/01 00:03:15;;;;;;;2.85;0.98;;;;;;;;;;1496403;39;20386;-57
2021/07/01 00:04:31;;;;;;;2.45;1.05;;;;;;;;;;1492140;39;20411;-58
2021/07/01 00:05:44;;;;;;;3.17;0.93;;;;;;;;;;1509246;31;20380;-58
2021/07/01 00:07:00;;;;;;;3.35;1.00;;;;;;;;;;1500599;39;20768;-57
2021/07/01 00:08:15;;;;;;;5.63;1.00;;;;;;;;;;1509091;39;20386;-58
2021/07/01 00:09:30;;;;;;;3.45;1.02;;;;;;;;;;1500561;39;20645;-57
2021/07/01 00:10:45;;;;;;;1.80;0.98;;;;;;;;;;1509047;39;20375;-58
2021/07/01 00:12:00;;;;;;;2.70;1.27;;;;;;;;;;1496306;39;20383;-58
2021/07/01 00:13:15;;;;;;;3.40;1.30;;;;;;;;;;1500521;31;20390;-58
2021/07/01 00:14:30;;;;;;;1.65;0.88;;;;;;;;;;1500647;31;20394;-58
2021/07/01 00:15:45;;;;;;;1.88;1.05;;;;;;;;;;1500587;39;20384;-57
2021/07/01 00:17:00;;;;;;;2.55;1.00;;;;;;;;;;1504855;39;20380;-57
2021/07/01 00:18:15;;;;;;;4.93;1.10;;;;;;;;;;1509154;39;20387;-57
2021/07/01 00:19:30;;;;;;;2.35;1.00;;;;;;;;;;1500570;39;20377;-57
2021/07/01 00:20:45;;;;;;;4.35;1.10;;;;;;;;;;1500594;39;20373;-57
2021/07/01 00:22:00;;;;;;;2.28;1.15;;;;;;;;;;1504789;39;20385;-57
2021/07/01 00:23:15;;;;;;;2.05;0.88;;;;;;;;;;1509144;39;20371;-57
2021/07/01 00:24:30;;;;;;;2.70;0.98;;;;;;;;;;1500453;39;20397;-57
2021/07/01 00:25:45;;;;;;;1.80;1.00;;;;;;;;;;1500575;39;20386;-57
2021/07/01 00:27:00;;;;;;;3.00;1.00;;;;;;;;;;1500594;39;20385;-58
2021/07/01 00:28:15;;;;;;;2.97;1.30;;;;;;;;;;1500633;39;20393;-57
2021/07/01 00:29:30;;;;;;;2.53;1.20;;;;;;;;;;1509243;31;20387;-58
2021/07/01 00:30:45;;;;;;;3.22;1.20;;;;;;;;;;1500565;39;20388;-58
2021/07/01 00:32:00;;;;;;;2.20;1.10;;;;;;;;;;1492096;39;20384;-57
2021/07/01 00:33:15;;;;;;;2.67;1.13;;;;;;;;;;1509192;39;20783;-57
2021/07/01 00:34:32;;;;;;;2.92;1.08;;;;;;;;;;1496415;31;20375;-57
2021/07/01 00:35:46;;;;;;;2.33;1.17;;;;;;;;;;1500679;39;20366;-55
2021/07/01 00:37:01;;;;;;;2.95;1.15;;;;;;;;;;1500616;39;20380;-57
2021/07/01 00:38:17;;;;;;;2.00;1.10;;;;;;;;;;1500653;31;20381;-57
2021/07/01 00:39:31;;;;;;;1.77;1.00;;;;;;;;;;1509136;39;20386;-57
2021/07/01 00:40:46;;;;;;;2.25;0.95;;;;;;;;;;1500643;39;20385;-57
2021/07/01 00:42:01;;;;;;;2.75;1.10;;;;;;;;;;1492051;39;20768;-57
2021/07/01 00:43:16;;;;;;;2.58;1.10;;;;;;;;;;1500648;39;20389;-57
2021/07/01 00:44:31;;;;;;;2.58;1.20;;;;;;;;;;1500476;39;20622;-57
2021/07/01 00:45:46;;;;;;;2.42;1.08;;;;;;;;;;1500566;39;20386;-57
2021/07/01 00:47:01;;;;;;;2.10;1.10;;;;;;;;;;1500593;39;20390;-57
2021/07/01 00:48:16;;;;;;;2.30;1.13;;;;;;;;;;1500534;39;20392;-57
2021/07/01 00:49:31;;;;;;;2.97;1.00;;;;;;;;;;1500686;31;20382;-57
2021/07/01 00:50:47;;;;;;;2.35;1.30;;;;;;;;;;1492170;39;20383;-58
2021/07/01 00:52:02;;;;;;;1.98;1.10;;;;;;;;;;1500569;39;20393;-58
2021/07/01 00:53:16;;;;;;;2.42;1.25;;;;;;;;;;1509174;39;20386;-54
2021/07/01 00:54:32;;;;;;;3.47;1.50;;;;;;;;;;1500669;39;20757;-53
2021/07/01 00:55:47;;;;;;;2.50;1.10;;;;;;;;;;1500570;39;20384;-54
2021/07/01 00:57:02;;;;;;;2.70;1.42;;;;;;;;;;1500724;39;20381;-55
2021/07/01 00:58:17;;;;;;;4.45;1.30;;;;;;;;;;1509128;39;20390;-56
2021/07/01 00:59:31;;;;;;;3.63;1.40;;;;;;;;;;1500749;31;20378;-55
2021/07/01 01:00:53;;;;;;;3.67;1.25;;;;;;;;;;1492027;39;20384;-55
2021/07/01 01:02:08;;;;;;;2.25;1.00;;;;;;;;;;1500649;31;20370;-57
2021/07/01 01:03:23;;;;;;;2.38;1.20;;;;;;;;;;1500593;39;20386;-57
2021/07/01 01:04:38;;;;;;;2.65;1.27;;;;;;;;;;1496471;31;20620;-55
2021/07/01 01:05:53;;;;;;;3.17;1.38;;;;;;;;;;1509161;39;20379;-55
2021/07/01 01:07:08;;;;;;;3.22;1.30;;;;;;;;;;1500650;39;20390;-54
2021/07/01 01:08:23;;;;;;;4.40;1.60;;;;;;;;;;1496311;39;20386;-56
2021/07/01 01:09:38;;;;;;;2.13;1.20;;;;;;;;;;1500605;39;20382;-57
2021/07/01 01:10:53;;;;;;;2.25;1.20;;;;;;;;;;1500558;31;20385;-57
2021/07/01 01:12:08;;;;;;;4.78;1.45;;;;;;;;;;1504724;39;20392;-57
2021/07/01 01:13:26;;;;;;;2.45;1.25;;;;;;;;;;1509140;39;20383;-56
2021/07/01 01:14:39;;;;;;;2.97;1.38;;;;;;;;;;1509264;39;20352;-56
2021/07/01 01:15:56;;;;;;;3.13;1.42;;;;;;;;;;1509276;31;20379;-56
2021/07/01 01:17:11;;;;;;;5.28;1.40;;;;;;;;;;1500528;39;20376;-56
2021/07/01 01:18:26;;;;;;;3.22;1.45;;;;;;;;;;1509104;39;20378;-57
2021/07/01 01:19:41;;;;;;;3.80;1.15;;;;;;;;;;1496282;39;20391;-57
2021/07/01 01:20:58;;;;;;;2.25;1.27;;;;;;;;;;1496385;39;20387;-57
2021/07/01 01:22:13;;;;;;;5.00;1.45;;;;;;;;;;1500574;39;20381;-56
2021/07/01 01:23:29;;;;;;;3.10;1.40;;;;;;;;;;1500593;39;20658;-57
2021/07/01 01:24:43;;;;;;;2.92;1.67;;;;;;;;;;1500677;39;20385;-58
2021/07/01 01:25:59;;;;;;;2.22;1.33;;;;;;;;;;1509172;39;20761;-57
2021/07/01 01:27:14;;;;;;;3.00;1.48;;;;;;;;;;1509249;39;20390;-57
2021/07/01 01:28:30;;;;;;;3.05;1.50;;;;;;;;;;1509294;39;20379;-57
2021/07/01 01:29:45;;;;;;;4.70;1.80;;;;;;;;;;1500607;39;20382;-58
2021/07/01 01:30:59;;;;;;;2.78;1.50;;;;;;;;;;1492157;39;20387;-57
2021/07/01 01:32:14;;;;;;;3.75;1.45;;;;;;;;;;1492143;31;20384;-57
2021/07/01 01:33:29;;;;;;;2.85;1.52;;;;;;;;;;1500629;39;20405;-57
2021/07/01 01:34:44;;;;;;;3.92;1.45;;;;;;;;;;1492185;31;20376;-57
2021/07/01 01:35:59;;;;;;;3.25;1.40;;;;;;;;;;1500620;39;20392;-57
2021/07/01 01:37:14;;;;;;;2.97;1.35;;;;;;;;;;1500650;31;20398;-57
2021/07/01 01:38:29;;;;;;;3.33;1.60;;;;;;;;;;1500583;39;20420;-57
2021/07/01 01:39:48;;;;;;;4.10;1.77;;;;;;;;;;1509194;39;20387;-57
2021/07/01 01:41:03;;;;;;;4.60;1.60;;;;;;;;;;1500698;39;20381;-58
2021/07/01 01:42:18;;;;;;;2.58;1.50;;;;;;;;;;1500568;39;20401;-58
2021/07/01 01:43:33;;;;;;;4.60;1.58;;;;;;;;;;1509200;39;20378;-57
2021/07/01 01:44:48;;;;;;;3.40;1.70;;;;;;;;;;1500561;39;20394;-56
2021/07/01 01:46:03;;;;;;;3.25;1.73;;;;;;;;;;1509125;39;20383;-57
2021/07/01 01:47:20;;;;;;;7.30;2.00;;;;;;;;;;1500603;31;20390;-57
2021/07/01 01:48:34;;;;;;;3.35;1.67;;;;;;;;;;1500661;39;20377;-57
2021/07/01 01:49:50;;;;;;;3.67;1.75;;;;;;;;;;1496345;39;20386;-57
2021/07/01 01:51:04;;;;;;;3.72;1.70;;;;;;;;;;1500642;39;20396;-57
2021/07/01 01:52:19;;;;;;;2.75;1.60;;;;;;;;;;1492069;39;20427;-57
2021/07/01 01:53:34;;;;;;;3.63;1.65;;;;;;;;;;1500662;39;20390;-58
2021/07/01 01:54:49;;;;;;;3.85;1.75;;;;;;;;;;1500566;39;20381;-58
2021/07/01 01:56:05;;;;;;;3.17;1.63;;;;;;;;;;1500616;39;20382;-57
2021/07/01 01:57:26;;;;;;;2.80;1.80;;;;;;;;;;1500628;39;20648;-57
2021/07/01 01:58:41;;;;;;;2.40;1.52;;;;;;;;;;1500580;39;20378;-57
2021/07/01 01:59:56;;;;;;;3.78;1.50;;;;;;;;;;1500589;39;20381;-57
2021/07/01 02:01:11;;;;;;;2.83;1.77;;;;;;;;;;1500598;39;20390;-57
2021/07/01 02:02:26;;;;;;;5.57;1.67;;;;;;;;;;1509130;39;20398;-57
2021/07/01 02:03:41;;;;;;;3.33;1.38;;;;;;;;;;1509139;39;20642;-57
2021/07/01 02:04:56;;;;;;;2.38;1.48;;;;;;;;;;1500495;39;20373;-57
2021/07/01 02:06:11;;;;;;;3.40;1.70;;;;;;;;;;1509121;39;20386;-57
2021/07/01 02:07:26;;;;;;;3.22;1.40;;;;;;;;;;1509088;39;20375;-57
2021/07/01 02:08:41;;;;;;;3.85;1.73;;;;;;;;;;1500540;39;20657;-58
2021/07/01 02:09:57;;;;;;;4.43;1.60;;;;;;;;;;1500552;39;20382;-57
2021/07/01 02:11:12;;;;;;;2.88;1.50;;;;;;;;;;1500523;39;20396;-57
2021/07/01 02:12:29;;;;;;;3.80;1.50;;;;;;;;;;1509167;39;20786;-57
2021/07/01 02:13:44;;;;;;;3.88;1.75;;;;;;;;;;1500646;39;20641;-58
2021/07/01 02:15:00;;;;;;;4.50;1.52;;;;;;;;;;1509218;39;20378;-57
2021/07/01 02:16:14;;;;;;;3.60;1.80;;;;;;;;;;1500575;39;20393;-57
2021/07/01 02:17:29;;;;;;;5.05;1.50;;;;;;;;;;1496354;39;20386;-57
2021/07/01 02:18:46;;;;;;;5.72;1.73;;;;;;;;;;1509101;39;20762;-57
2021/07/01 02:20:01;;;;;;;2.97;1.60;;;;;;;;;;1500668;39;20369;-57
2021/07/01 02:21:16;;;;;;;3.28;1.50;;;;;;;;;;1496507;39;20382;-57
2021/07/01 02:22:31;;;;;;;4.25;1.45;;;;;;;;;;1509139;39;20439;-58
2021/07/01 02:23:46;;;;;;;3.20;1.60;;;;;;;;;;1500628;39;20369;-57
2021/07/01 02:25:01;;;;;;;3.15;1.58;;;;;;;;;;1500599;39;20648;-55
2021/07/01 02:26:16;;;;;;;2.47;1.60;;;;;;;;;;1500636;39;20389;-57
2021/07/01 02:27:31;;;;;;;4.30;1.73;;;;;;;;;;1500595;39;20764;-57
2021/07/01 02:28:46;;;;;;;2.70;1.52;;;;;;;;;;1500625;39;20392;-57
2021/07/01 02:30:01;;;;;;;4.00;1.73;;;;;;;;;;1496392;39;20386;-58
2021/07/01 02:31:16;;;;;;;3.50;1.50;;;;;;;;;;1500507;39;20390;-57
2021/07/01 02:32:31;;;;;;;3.28;1.40;;;;;;;;;;1496171;39;20511;-57
2021/07/01 02:33:46;;;;;;;2.55;1.38;;;;;;;;;;1500736;31;20634;-57
2021/07/01 02:35:01;;;;;;;3.08;1.92;;;;;;;;;;1500585;39;20386;-57
2021/07/01 02:36:16;;;;;;;5.05;1.73;;;;;;;;;;1500570;39;20378;-57
2021/07/01 02:37:31;;;;;;;3.70;1.63;;;;;;;;;;1509204;39;20390;-57
2021/07/01 02:38:46;;;;;;;2.38;1.38;;;;;;;;;;1500589;39;20381;-57
2021/07/01 02:40:01;;;;;;;3.03;1.42;;;;;;;;;;1509096;39;20382;-57
2021/07/01 02:41:16;;;;;;;3.30;1.20;;;;;;;;;;1509130;39;20650;-56
2021/07/01 02:42:31;;;;;;;3.03;1.40;;;;;;;;;;1500601;39;20401;-57
2021/07/01 02:43:46;;;;;;;2.60;1.30;;;;;;;;;;1509128;39;20627;-57
2021/07/01 02:45:01;;;;;;;2.22;1.30;;;;;;;;;;1496293;39;20391;-57
2021/07/01 02:46:16;;;;;;;3.33;1.50;;;;;;;;;;1500596;39;20657;-57
2021/07/01 02:47:31;;;;;;;3.58;1.35;;;;;;;;;;1509070;39;20391;-56
2021/07/01 02:48:46;;;;;;;3.53;1.50;;;;;;;;;;1500559;39;20653;-56
2021/07/01 02:50:01;;;;;;;3.42;1.70;;;;;;;;;;1492158;39;20381;-56
2021/07/01 02:51:16;;;;;;;2.50;1.55;;;;;;;;;;1509124;39;20758;-57
2021/07/01 02:52:31;;;;;;;3.05;1.60;;;;;;;;;;1500550;39;20397;-57
2021/07/01 02:53:46;;;;;;;3.03;1.42;;;;;;;;;;1509215;39;20386;-57
2021/07/01 02:55:01;;;;;;;3.40;1.40;;;;;;;;;;1496400;39;20402;-57
2021/07/01 02:56:16;;;;;;;4.78;1.58;;;;;;;;;;1509184;39;20391;-57
2021/07/01 02:57:31;;;;;;;4.88;1.58;;;;;;;;;;1496345;39;20394;-57
2021/07/01 02:58:46;;;;;;;3.58;1.45;;;;;;;;;;1500555;39;20397;-57
2021/07/01 03:00:01;;;;;;;3.50;1.60;;;;;;;;;;1496218;39;20398;-57
2021/07/01 03:01:16;;;;;;;2.95;1.60;;;;;;;;;;1509222;39;20773;-57
2021/07/01 03:02:31;;;;;;;4.13;1.67;;;;;;;;;;1500631;39;20777;-57
2021/07/01 03:03:46;;;;;;;3.08;1.63;;;;;;;;;;1509328;39;20386;-58
2021/07/01 03:05:01;;;;;;;3.05;1.70;;;;;;;;;;1500519;39;20657;-56
2021/07/01 03:06:16;;;;;;;5.72;1.70;;;;;;;;;;1509209;39;20383;-57
2021/07/01 03:07:31;;;;;;;3.42;1.75;;;;;;;;;;1500661;39;20796;-57
2021/07/01 03:08:46;;;;;;;3.25;1.70;;;;;;;;;;1500545;39;20389;-57
2021/07/01 03:10:01;;;;;;;3.55;1.60;;;;;;;;;;1509237;31;20387;-57
2021/07/01 03:11:16;;;;;;;3.75;1.70;;;;;;;;;;1500589;39;20385;-58
2021/07/01 03:12:31;;;;;;;5.95;1.52;;;;;;;;;;1500449;39;20424;-57
2021/07/01 03:13:46;;;;;;;2.97;1.58;;;;;;;;;;1500679;31;20378;-57
2021/07/01 03:15:01;;;;;;;4.20;1.70;;;;;;;;;;1492141;39;20377;-58
2021/07/01 03:16:19;;;;;;;5.80;2.08;;;;;;;;;;1500649;39;20381;-57
2021/07/01 03:17:33;;;;;;;3.20;1.50;;;;;;;;;;1509283;39;20366;-58
2021/07/01 03:18:48;;;;;;;2.65;1.55;;;;;;;;;;1509234;31;20754;-57
2021/07/01 03:20:03;;;;;;;2.95;1.85;;;;;;;;;;1509148;39;20371;-57
2021/07/01 03:21:19;;;;;;;3.22;1.92;;;;;;;;;;1500728;39;20380;-58
2021/07/01 03:22:34;;;;;;;3.45;1.90;;;;;;;;;;1500536;39;20413;-57
2021/07/01 03:23:50;;;;;;;5.35;1.90;;;;;;;;;;1492143;39;20383;-54
2021/07/01 03:25:05;;;;;;;4.40;2.13;;;;;;;;;;1509131;39;20378;-57
2021/07/01 03:26:20;;;;;;;3.35;1.88;;;;;;;;;;1492138;39;20388;-57
2021/07/01 03:27:34;;;;;;;5.43;2.20;;;;;;;;;;1496409;39;20394;-57
2021/07/01 03:28:49;;;;;;;3.67;2.10;;;;;;;;;;1509166;39;20394;-56
2021/07/01 03:30:06;;;;;;;3.95;1.90;;;;;;;;;;1500574;39;20394;-56
2021/07/01 03:31:21;;;;;;;5.45;1.90;;;;;;;;;;1509164;39;20387;-57
2021/07/01 03:32:36;;;;;;;3.17;2.05;;;;;;;;;;1500466;39;20401;-57
2021/07/01 03:33:51;;;;;;;5.18;2.08;;;;;;;;;;1509074;39;20394;-58
2021/07/01 03:35:07;;;;;;;3.65;2.15;;;;;;;;;;1504788;39;20492;-58
2021/07/01 03:36:21;;;;;;;4.15;2.20;;;;;;;;;;1509192;39;20390;-57
2021/07/01 03:37:36;;;;;;;4.82;2.40;;;;;;;;;;1500529;39;20386;-57
2021/07/01 03:38:51;;;;;;;4.70;2.22;;;;;;;;;;1500478;39;20390;-57
2021/07/01 03:40:09;;;;;;;3.92;2.20;;;;;;;;;;1500536;39;20393;-57
2021/07/01 03:41:22;;;;;;;4.55;2.42;;;;;;;;;;1500620;39;20370;-57
2021/07/01 03:42:38;;;;;;;4.05;2.28;;;;;;;;;;1509016;39;20407;-58
2021/07/01 03:43:52;;;;;;;4.30;2.60;;;;;;;;;;1496348;39;20401;-57
2021/07/01 03:45:08;;;;;;;3.53;2.22;;;;;;;;;;1496423;39;20376;-58
2021/07/01 03:56:45;;;;;;;5.05;2.28;;;;;;;;;;1500541;39;20652;-56
2021/07/01 03:58:00;;;;;;;4.97;2.38;;;;;;;;;;1500563;31;20381;-57
2021/07/01 03:59:15;;;;;;;3.95;2.20;;;;;;;;;;1500615;39;20385;-57
2021/07/01 04:00:31;;;;;;;3.42;2.25;;;;;;;;;;1500663;31;20630;-58
2021/07/01 04:01:46;;;;;;;4.70;2.35;;;;;;;;;;1492124;39;20391;-57
2021/07/01 04:03:01;;;;;;;3.55;2.20;;;;;;;;;;1492066;39;20380;-57
2021/07/01 04:04:16;;;;;;;4.57;2.33;;;;;;;;;;1496402;31;20375;-58
2021/07/01 04:05:31;;;;;;;3.67;2.17;;;;;;;;;;1500541;39;20396;-57
2021/07/01 04:06:46;;;;;;;3.75;2.38;;;;;;;;;;1492104;39;20640;-57
2021/07/01 04:08:01;;;;;;;6.47;2.55;;;;;;;;;;1496411;39;20382;-57
2021/07/01 04:09:16;;;;;;;4.25;1.98;;;;;;;;;;1504843;39;20771;-57
2021/07/01 04:10:31;;;;;;;5.32;2.42;;;;;;;;;;1509207;39;20379;-57
2021/07/01 04:11:46;;;;;;;4.60;2.70;;;;;;;;;;1492037;39;20771;-57
2021/07/01 04:13:01;;;;;;;4.47;2.25;;;;;;;;;;1496369;39;20375;-58
2021/07/01 04:14:18;;;;;;;5.00;2.60;;;;;;;;;;1500544;39;20645;-58
2021/07/01 04:15:31;;;;;;;5.20;2.50;;;;;;;;;;1509202;31;20623;-57
2021/07/01 04:16:46;;;;;;;5.63;2.40;;;;;;;;;;1496381;39;20781;-56
2021/07/01 04:18:08;;;;;;;4.35;2.40;;;;;;;;;;1500648;39;20385;-57
2021/07/01 04:19:23;;;;;;;5.13;2.78;;;;;;;;;;1500644;39;20350;-57
2021/07/01 04:20:38;;;;;;;5.82;2.65;;;;;;;;;;1492121;39;20385;-57
2021/07/01 04:21:53;;;;;;;5.45;3.08;;;;;;;;;;1509197;39;20386;-57
2021/07/01 04:23:08;;;;;;;5.50;2.65;;;;;;;;;;1500597;39;20385;-55
2021/07/01 04:24:23;;;;;;;5.70;2.63;;;;;;;;;;1496333;39;20375;-57
2021/07/01 04:25:38;;;;;;;5.30;3.03;;;;;;;;;;1500498;39;20397;-57
2021/07/01 04:26:53;;;;;;;5.28;3.20;;;;;;;;;;1500552;39;20381;-56
2021/07/01 04:28:07;;;;;;;6.85;2.92;;;;;;;;;;1492116;39;20391;-57
2021/07/01 04:29:23;;;;;;;6.25;2.83;;;;;;;;;;1509250;31;20383;-57
2021/07/01 04:30:38;;;;;;;6.13;2.90;;;;;;;;;;1492175;39;20373;-57
2021/07/01 04:31:53;;;;;;;5.15;3.05;;;;;;;;;;1509286;31;20623;-58
2021/07/01 04:33:08;;;;;;;5.28;3.15;;;;;;;;;;1509178;39;20394;-58
2021/07/01 04:34:23;;;;;;;5.30;3.00;;;;;;;;;;1509207;39;20390;-57
2021/07/01 04:35:38;;;;;;;4.53;3.05;;;;;;;;;;1492112;39;20372;-57
2021/07/01 04:36:53;;;;;;;6.55;3.30;;;;;;;;;;1500587;39;20400;-58
2021/07/01 04:38:08;;;;;;;7.50;3.45;;;;;;;;;;1496362;39;20394;-58
2021/07/01 04:39:23;;;;;;;6.65;3.50;;;;;;;;;;1500657;39;20630;-57
2021/07/01 04:40:38;;;;;;;6.55;4.00;;;;;;;;;;1509189;31;20383;-57
2021/07/01 04:41:53;;;;;;;6.43;4.00;;;;;;;;;;1500555;39;20765;-57
2021/07/01 04:43:08;;;;;;;6.00;3.60;;;;;;;;;;1509150;39;20382;-58
2021/07/01 04:44:23;;;;;;;7.13;4.10;;;;;;;;;;1500547;39;20412;-58
2021/07/01 04:45:38;;;;;;;7.10;3.30;;;;;;;;;;1492141;39;20384;-58
2021/07/01 04:46:53;;;;;;;8.13;3.95;;;;;;;;;;1500527;31;20768;-57
2021/07/01 04:48:08;;;;;;;9.10;4.18;;;;;;;;;;1509188;39;20382;-57
2021/07/01 04:49:23;;;;;;;7.03;4.10;;;;;;;;;;1500665;39;20757;-58
2021/07/01 04:50:38;;;;;;;7.00;4.00;;;;;;;;;;1500463;39;20378;-58
2021/07/01 04:51:53;;;;;;;6.90;3.80;;;;;;;;;;1500700;39;20393;-57
2021/07/01 04:53:08;;;;;;;8.40;4.80;;;;;;;;;;1500478;39;20394;-58
2021/07/01 04:54:23;;;;;;;9.02;4.20;;;;;;;;;;1496382;39;20394;-58
2021/07/01 04:55:38;;;;;;;8.25;4.53;;;;;;;;;;1509080;39;20459;-58
2021/07/01 04:56:53;;;;;;;7.53;4.10;;;;;;;;;;1492341;39;20391;-57
2021/07/01 04:58:08;;;;;;;9.32;4.85;;;;;;;;;;1509119;39;20379;-57
2021/07/01 04:59:23;;;;;;;6.20;3.63;;;;;;;;;;1509142;39;20390;-57
2021/07/01 05:00:38;;;;;;;5.93;3.80;;;;;;;;;;1509179;39;20387;-58
2021/07/01 05:01:55;;;;;;;7.03;4.22;;;;;;;;;;1500619;31;20395;-58
2021/07/01 05:03:09;;;;;;;7.38;3.95;;;;;;;;;;1492136;39;20372;-58
2021/07/01 05:04:24;;;;;;;8.25;3.97;;;;;;;;;;1496343;39;20379;-57
2021/07/01 05:05:39;;;;;;;6.55;4.10;;;;;;;;;;1509175;39;20385;-57
2021/07/01 05:06:54;;;;;;;8.00;4.53;;;;;;;;;;1491996;39;20392;-58
2021/07/01 05:08:09;;;;;;;9.48;4.30;;;;;;;;;;1500582;39;20385;-58
2021/07/01 05:09:24;;;;;;;9.48;4.60;;;;;;;;;;1496367;39;20781;-58
2021/07/01 05:10:39;;;;;;;7.82;4.40;;;;;;;;;;1496450;39;20387;-58
2021/07/01 05:11:54;;;;;;;7.15;4.60;;;;;;;;;;1509105;39;20654;-58
2021/07/01 05:13:09;;;;;;;7.32;4.07;;;;;;;;;;1492132;39;20384;-57
2021/07/01 05:14:24;;;;;;;7.68;4.20;;;;;;;;;;1500565;39;20769;-58
2021/07/01 05:15:40;;;;;;;7.00;3.90;;;;;;;;;;1509278;39;20383;-59
2021/07/01 05:16:54;;;;;;;6.60;4.20;;;;;;;;;;1492156;39;20379;-60
2021/07/01 05:18:09;;;;;;;9.00;3.92;;;;;;;;;;1500607;31;20377;-60
2021/07/01 05:19:24;;;;;;;7.00;3.90;;;;;;;;;;1500578;39;20392;-60
2021/07/01 05:20:40;;;;;;;8.00;4.63;;;;;;;;;;1500593;31;20386;-59
2021/07/01 05:21:54;;;;;;;5.38;3.40;;;;;;;;;;1500469;39;20653;-59
2021/07/01 05:23:09;;;;;;;6.45;3.58;;;;;;;;;;1509099;39;20380;-60
2021/07/01 05:24:24;;;;;;;7.40;3.97;;;;;;;;;;1500468;39;20381;-59
2021/07/01 05:25:39;;;;;;;5.53;3.70;;;;;;;;;;1500416;39;20389;-60
2021/07/01 05:26:54;;;;;;;8.07;4.07;;;;;;;;;;1492135;39;20381;-61
2021/07/01 05:28:11;;;;;;;6.47;4.00;;;;;;;;;;1500545;39;20385;-59
2021/07/01 05:29:26;;;;;;;6.95;4.03;;;;;;;;;;1496381;39;20406;-60
2021/07/01 05:30:41;;;;;;;7.25;4.40;;;;;;;;;;1496373;39;20386;-60
2021/07/01 05:31:56;;;;;;;7.53;3.78;;;;;;;;;;1500658;39;20633;-60
2021/07/01 05:33:11;;;;;;;8.82;4.10;;;;;;;;;;1500624;39;20780;-59
2021/07/01 05:34:26;;;;;;;7.65;4.00;;;;;;;;;;1496297;39;20391;-59
2021/07/01 05:35:41;;;;;;;6.82;3.40;;;;;;;;;;1496283;39;20399;-59
2021/07/01 05:36:56;;;;;;;6.68;3.53;;;;;;;;;;1509172;39;20765;-59
2021/07/01 05:38:11;;;;;;;5.90;3.92;;;;;;;;;;1500627;39;20381;-59
2021/07/01 05:39:26;;;;;;;6.63;3.78;;;;;;;;;;1500860;39;20642;-59
2021/07/01 05:40:41;;;;;;;6.68;4.03;;;;;;;;;;1492147;39;20383;-59
2021/07/01 05:41:56;;;;;;;4.93;3.45;;;;;;;;;;1509227;31;20642;-59
2021/07/01 05:43:11;;;;;;;9.10;3.78;;;;;;;;;;1509117;39;20390;-59
2021/07/01 05:44:26;;;;;;;8.00;3.60;;;;;;;;;;1500633;39;20404;-60
2021/07/01 05:45:41;;;;;;;6.60;3.67;;;;;;;;;;1500612;39;20377;-60
2021/07/01 05:46:56;;;;;;;8.15;3.97;;;;;;;;;;1500674;31;20773;-62
2021/07/01 05:48:11;;;;;;;6.78;3.47;;;;;;;;;;1500610;31;20385;-60
2021/07/01 05:49:26;;;;;;;7.85;3.80;;;;;;;;;;1509209;31;20387;-59
2021/07/01 05:50:46;;;;;;;7.93;3.80;;;;;;;;;;1500616;39;20417;-61
2021/07/01 05:52:03;;;;;;;8.73;3.53;;;;;;;;;;1496262;31;20376;-60
2021/07/01 05:53:24;;;;;;;6.70;3.97;;;;;;;;;;1500507;39;20381;-60
2021/07/01 05:54:51;;;;;;;7.10;3.53;;;;;;;;;;1500625;39;20378;-60
2021/07/01 05:56:05;;;;;;;7.60;3.85;;;;;;;;;;1496333;39;20374;-60
2021/07/01 05:57:20;;;;;;;6.38;3.70;;;;;;;;;;1500537;39;20637;-60
2021/07/01 05:58:35;;;;;;;6.03;3.95;;;;;;;;;;1492188;31;20376;-61
2021/07/01 05:59:50;;;;;;;8.52;4.00;;;;;;;;;;1500546;39;20402;-60
2021/07/01 06:01:05;;;;;;;7.38;4.10;;;;;;;;;;1509186;39;20383;-61
2021/07/01 06:02:21;;;;;;;6.88;4.15;;;;;;;;;;1509181;39;20785;-60
2021/07/01 06:03:36;;;;;;;7.55;4.13;;;;;;;;;;1492184;39;20381;-60
2021/07/01 06:04:50;;;;;;;6.40;3.45;;;;;;;;;;1496340;31;20379;-59
2021/07/01 06:06:11;;;;;;;6.93;4.05;;;;;;;;;;1500614;39;20380;-59
2021/07/01 06:07:26;;;;;;;6.22;3.88;;;;;;;;;;1509163;39;20371;-62
2021/07/01 06:08:41;;;;;;;6.25;3.90;;;;;;;;;;1492099;39;20385;-60
2021/07/01 06:09:57;;;;;;;7.60;3.88;;;;;;;;;;1492136;39;20384;-61
2021/07/01 06:11:16;;;;;;;11.30;4.38;;;;;;;;;;1496415;39;20619;-61
2021/07/01 06:12:33;;;;;;;8.75;4.00;;;;;;;;;;1509041;39;20385;-60
2021/07/01 06:13:49;;;;;;;7.20;4.13;;;;;;;;;;1492202;31;20368;-60
2021/07/01 06:15:04;;;;;;;6.28;3.85;;;;;;;;;;1500559;39;20390;-60
2021/07/01 06:16:20;;;;;;;9.02;4.03;;;;;;;;;;1492144;39;20407;-60
2021/07/01 06:17:35;;;;;;;6.13;3.70;;;;;;;;;;1500639;39;20384;-60
2021/07/01 06:18:50;;;;;;;8.55;4.57;;;;;;;;;;1492074;39;20377;-61
2021/07/01 06:20:08;;;;;;;9.35;4.60;;;;;;;;;;1500580;39;20389;-59
2021/07/01 06:21:22;;;;;;;7.05;3.88;;;;;;;;;;1509337;31;20355;-60
2021/07/01 06:22:37;;;;;;;7.40;3.83;;;;;;;;;;1509030;39;20403;-59
2021/07/01 06:23:52;;;;;;;6.68;3.72;;;;;;;;;;1492193;39;20381;-60
2021/07/01 06:25:08;;;;;;;8.27;4.13;;;;;;;;;;1509167;39;20387;-61
2021/07/01 06:26:27;;;;;;;8.20;4.10;;;;;;;;;;1496401;31;20771;-60
2021/07/01 06:27:41;;;;;;;6.68;3.75;;;;;;;;;;1500645;39;20385;-59
2021/07/01 06:28:57;;;;;;;8.80;3.83;;;;;;;;;;1500543;39;20653;-59
2021/07/01 06:30:18;;;;;;;7.40;3.63;;;;;;;;;;1500642;39;20389;-60
2021/07/01 06:31:33;;;;;;;7.43;3.90;;;;;;;;;;1500756;39;20374;-60
2021/07/01 06:32:51;;;;;;;7.18;3.50;;;;;;;;;;1500567;31;20413;-61
2021/07/01 06:34:05;;;;;;;6.30;3.80;;;;;;;;;;1509266;39;20367;-60
2021/07/01 06:35:22;;;;;;;8.68;3.92;;;;;;;;;;1509131;39;20375;-61
2021/07/01 06:36:41;;;;;;;7.47;4.00;;;;;;;;;;1509230;39;20355;-59
2021/07/01 06:38:00;;;;;;;6.03;3.75;;;;;;;;;;1500643;39;20629;-60
2021/07/01 06:39:14;;;;;;;7.57;3.83;;;;;;;;;;1492111;39;20365;-62
2021/07/01 06:40:31;;;;;;;6.43;3.45;;;;;;;;;;1500586;39;20404;-60
2021/07/01 06:41:47;;;;;;;6.15;3.30;;;;;;;;;;1496393;39;20359;-60
2021/07/01 06:43:02;;;;;;;5.72;3.40;;;;;;;;;;1500514;39;20389;-58
2021/07/01 06:44:17;;;;;;;6.90;3.85;;;;;;;;;;1509267;31;20637;-60
2021/07/01 06:45:33;;;;;;;7.20;3.95;;;;;;;;;;1500471;39;20398;-60
2021/07/01 06:46:48;;;;;;;10.45;4.22;;;;;;;;;;1504835;39;20388;-61
2021/07/01 06:48:04;;;;;;;7.18;3.88;;;;;;;;;;1509194;31;20378;-60
2021/07/01 06:49:20;;;;;;;6.63;3.88;;;;;;;;;;1500574;39;20388;-60
2021/07/01 06:50:36;;;;;;;7.45;3.75;;;;;;;;;;1504864;39;20388;-60
2021/07/01 06:51:54;;;;;;;5.93;3.85;;;;;;;;;;1509137;39;20387;-60
2021/07/01 06:53:09;;;;;;;7.72;3.90;;;;;;;;;;1500590;39;20366;-60
2021/07/01 06:54:24;;;;;;;5.80;3.47;;;;;;;;;;1509156;39;20382;-60
2021/07/01 06:55:39;;;;;;;7.60;3.75;;;;;;;;;;1492235;39;20373;-60
2021/07/01 06:56:54;;;;;;;5.82;3.80;;;;;;;;;;1492082;39;20389;-60
2021/07/01 06:58:09;;;;;;;8.10;4.30;;;;;;;;;;1509017;39;20390;-61
2021/07/01 06:59:24;;;;;;;5.82;3.40;;;;;;;;;;1500542;39;20658;-62
2021/07/01 07:00:39;;;;;;;9.30;4.03;;;;;;;;;;1504796;39;20388;-60
2021/07/01 07:01:54;;;;;;;7.13;3.83;;;;;;;;;;1504848;39;20376;-61
2021/07/01 07:03:17;;;;;;;9.73;4.53;;;;;;;;;;1509067;39;20378;-60
2021/07/01 07:04:36;;;;;;;6.95;4.00;;;;;;;;;;1509195;39;20452;-61
2021/07/01 07:05:53;;;;;;;6.10;3.55;;;;;;;;;;1509338;39;20463;-57
2021/07/01 07:07:09;;;;;;;8.45;4.25;;;;;;;;;;1509033;39;20654;-58
2021/07/01 07:08:23;;;;;;;7.38;3.80;;;;;;;;;;1492179;31;20372;-58
2021/07/01 07:09:39;;;;;;;6.53;3.67;;;;;;;;;;1500658;39;20393;-58
2021/07/01 07:10:53;;;;;;;5.70;3.70;;;;;;;;;;1500528;39;20459;-60
2021/07/01 07:12:08;;;;;;;6.68;4.40;;;;;;;;;;1492383;39;20373;-58
2021/07/01 07:13:25;;;;;;;7.28;4.32;;;;;;;;;;1500477;39;20657;-58
2021/07/01 07:14:40;;;;;;;6.55;4.05;;;;;;;;;;1500486;39;20378;-58
2021/07/01 07:16:00;;;;;;;7.70;4.13;;;;;;;;;;1509143;39;20378;-57
2021/07/01 07:17:15;;;;;;;9.10;4.25;;;;;;;;;;1504808;39;20352;-58
2021/07/01 07:18:34;;;;;;;7.13;4.43;;;;;;;;;;1492112;39;20384;-60
2021/07/01 07:19:49;;;;;;;6.50;3.70;;;;;;;;;;1509154;39;20375;-60
2021/07/01 07:21:08;;;;;;;8.75;4.40;;;;;;;;;;1504772;39;20388;-61
2021/07/01 07:22:27;;;;;;;9.35;5.32;;;;;;;;;;1509025;39;20662;-60
2021/07/01 07:23:43;;;;;;;9.15;4.18;;;;;;;;;;1496391;39;20371;-60
2021/07/01 07:25:04;;;;;;;7.50;3.65;;;;;;;;;;1500631;39;20385;-61
2021/07/01 07:26:21;;;;;;;5.93;3.67;;;;;;;;;;1500537;39;20380;-60
2021/07/01 07:27:38;;;;;;;7.20;3.92;;;;;;;;;;1496413;39;20378;-60
2021/07/01 07:28:56;;;;;;;8.40;3.97;;;;;;;;;;1500604;39;20427;-60
2021/07/01 07:30:11;;;;;;;6.65;3.58;;;;;;;;;;1500639;39;20377;-61
2021/07/01 07:31:28;;;;;;;8.40;3.60;;;;;;;;;;1500513;39;20656;-59
2021/07/01 07:32:43;;;;;;;6.78;3.90;;;;;;;;;;1496383;31;20398;-61
2021/07/01 07:34:01;;;;;;;6.22;3.67;;;;;;;;;;1492154;39;20407;-60
2021/07/01 07:35:17;;;;;;;8.10;3.58;;;;;;;;;;1509270;31;20363;-60
2021/07/01 07:36:33;;;;;;;5.35;3.47;;;;;;;;;;1500602;39;20370;-59
2021/07/01 07:37:48;;;;;;;6.30;3.70;;;;;;;;;;1500555;39;20374;-60
2021/07/01 07:39:06;;;;;;;6.38;3.35;;;;;;;;;;1500622;39;20385;-60
2021/07/01 07:40:20;;;;;;;8.55;3.40;;;;;;;;;;1496424;39;20619;-61
2021/07/01 07:41:35;;;;;;;5.22;3.10;;;;;;;;;;1500650;31;20381;-61
2021/07/01 07:42:50;;;;;;;5.55;3.20;;;;;;;;;;1496307;39;20646;-60